Time;durP1;ratioP1;P1;durP2;ratioP2;P2;SDS_P1;SDS_P2;PMS_P1;PMS_P2;Temp;Humidity;BMP_temperature;BMP_pressure;BME280_temperature;BME280_humidity;BME280_pressure;Samples;Min_cycle;Max_cycle;Signal;HPM_P1;HPM_P2
2021/04/26 00:00:06;;;;;;;4.73;2.97;;;10.00;72.80;;;;;;5036595;28;20486;-57
2021/04/26 00:02:32;;;;;;;4.03;3.00;;;10.10;72.90;;;;;;5036401;28;20206;-56
2021/04/26 00:04:58;;;;;;;5.00;2.67;;;10.10;73.50;;;;;;5036556;28;20410;-57
2021/04/26 00:07:24;;;;;;;4.73;3.00;;;10.10;73.40;;;;;;5036367;28;20418;-57
2021/04/26 00:09:50;;;;;;;4.27;2.87;;;10.10;73.30;;;;;;5036600;28;20589;-59
2021/04/26 00:12:15;;;;;;;4.13;2.80;;;10.10;73.10;;;;;;5018590;28;20668;-56
2021/04/26 00:14:41;;;;;;;3.40;2.57;;;10.10;73.30;;;;;;5018604;28;20205;-57
2021/04/26 00:17:06;;;;;;;5.43;3.83;;;10.10;73.30;;;;;;5036113;28;20251;-56
2021/04/26 00:19:32;;;;;;;4.57;3.03;;;10.00;73.10;;;;;;5036126;28;20169;-57
2021/04/26 00:21:58;;;;;;;2.97;2.67;;;10.00;73.20;;;;;;5036137;28;20185;-56
2021/04/26 00:24:23;;;;;;;3.27;2.97;;;10.10;73.10;;;;;;5036233;28;20658;-57
2021/04/26 00:26:49;;;;;;;4.60;2.70;;;10.10;71.80;;;;;;5035794;28;20187;-57
2021/04/26 00:29:15;;;;;;;3.40;3.10;;;10.10;71.30;;;;;;5036088;28;20547;-58
2021/04/26 00:31:40;;;;;;;3.17;2.90;;;10.10;72.20;;;;;;5035721;28;20176;-56
2021/04/26 00:34:06;;;;;;;3.23;2.50;;;10.20;72.80;;;;;;5035555;28;20166;-54
2021/04/26 00:36:32;;;;;;;4.40;3.03;;;10.10;74.00;;;;;;5035574;28;20207;-56
2021/04/26 00:38:57;;;;;;;9.10;3.50;;;10.10;74.50;;;;;;5035691;28;20201;-56
2021/04/26 00:41:23;;;;;;;7.27;3.00;;;10.00;74.00;;;;;;5035624;28;20557;-54
2021/04/26 00:43:49;;;;;;;3.27;2.97;;;10.10;75.20;;;;;;5035883;28;20174;-58
2021/04/26 00:46:15;;;;;;;6.00;3.53;;;9.80;76.70;;;;;;5035453;28;20281;-57
2021/04/26 00:48:42;;;;;;;3.70;2.87;;;9.60;76.30;;;;;;5035290;28;20172;-54
2021/04/26 00:51:08;;;;;;;5.10;3.50;;;9.70;77.50;;;;;;5035884;28;20837;-55
2021/04/26 00:53:34;;;;;;;3.80;3.20;;;9.70;78.30;;;;;;5035453;28;21174;-55
2021/04/26 00:56:00;;;;;;;5.53;3.67;;;9.50;78.90;;;;;;5035898;28;20432;-54
2021/04/26 00:58:26;;;;;;;5.57;3.00;;;9.60;79.30;;;;;;5034235;28;20461;-54
2021/04/26 01:00:51;;;;;;;3.83;3.10;;;9.60;79.50;;;;;;5035377;28;20477;-55
2021/04/26 01:03:17;;;;;;;5.53;4.10;;;9.40;79.90;;;;;;5034934;28;20735;-54
2021/04/26 01:05:43;;;;;;;3.90;3.00;;;9.40;80.20;;;;;;5035422;28;20192;-56
2021/04/26 01:08:08;;;;;;;7.10;3.53;;;9.40;80.70;;;;;;5035284;28;20164;-56
2021/04/26 01:10:35;;;;;;;5.33;3.50;;;9.40;81.80;;;;;;5035472;28;20172;-57
2021/04/26 01:13:25;;;;;;;4.90;4.40;;;9.10;81.30;;;;;;5034968;28;20262;-56
2021/04/26 01:15:54;;;;;;;4.80;3.77;;;9.20;82.20;;;;;;5033854;28;20810;-56
2021/04/26 01:18:31;;;;;;;5.73;3.80;;;9.10;82.60;;;;;;5035016;28;20390;-55
2021/04/26 01:21:19;;;;;;;7.03;4.20;;;9.10;83.50;;;;;;5035239;28;20435;-56
2021/04/26 01:23:53;;;;;;;4.73;3.17;;;9.30;84.00;;;;;;5034032;28;20418;-54
2021/04/26 01:26:44;;;;;;;7.40;4.77;;;9.30;84.40;;;;;;5034945;28;20430;-55
2021/04/26 01:29:56;;;;;;;6.03;4.43;;;9.30;83.50;;;;;;5035317;28;20757;-53
2021/04/26 01:32:28;;;;;;;5.30;4.30;;;9.30;82.90;;;;;;5034267;28;20410;-55
2021/04/26 01:34:56;;;;;;;5.20;4.70;;;9.20;83.40;;;;;;5035024;28;20412;-54
2021/04/26 01:37:22;;;;;;;4.80;3.80;;;9.30;83.80;;;;;;5073261;22;20542;-56
2021/04/26 01:39:50;;;;;;;6.23;4.40;;;9.40;84.40;;;;;;5074861;28;20396;-53
2021/04/26 01:42:18;;;;;;;8.03;4.70;;;9.40;84.70;;;;;;5074638;28;20497;-54
2021/04/26 01:44:44;;;;;;;5.47;4.83;;;9.20;84.20;;;;;;5073429;28;20510;-57
2021/04/26 01:47:11;;;;;;;5.17;4.67;;;9.00;85.10;;;;;;5074383;28;20421;-52
2021/04/26 01:49:38;;;;;;;6.07;5.10;;;9.10;85.50;;;;;;5074622;28;20398;-53
2021/04/26 01:52:06;;;;;;;6.77;4.50;;;9.10;86.50;;;;;;5074110;28;20501;-56
2021/04/26 01:54:33;;;;;;;6.63;5.00;;;9.10;87.20;;;;;;5074422;28;20404;-53
2021/04/26 01:56:59;;;;;;;7.03;4.80;;;9.20;87.50;;;;;;5074284;28;20437;-53
2021/04/26 01:59:26;;;;;;;4.93;4.40;;;9.20;87.30;;;;;;5074439;28;20441;-56
2021/04/26 02:01:54;;;;;;;7.87;5.33;;;9.20;87.50;;;;;;5073976;28;20971;-56
2021/04/26 02:04:20;;;;;;;7.30;5.03;;;8.90;88.20;;;;;;5074046;28;20457;-56
2021/04/26 02:06:49;;;;;;;6.77;4.53;;;9.00;88.70;;;;;;5066519;28;20478;-53
2021/04/26 02:09:15;;;;;;;8.33;4.10;;;9.10;89.40;;;;;;5054026;28;20402;-56
2021/04/26 02:11:41;;;;;;;6.03;4.70;;;9.00;89.60;;;;;;5053237;28;20408;-56
2021/04/26 02:14:11;;;;;;;7.40;4.20;;;9.00;90.10;;;;;;5054184;28;20769;-55
2021/04/26 02:16:37;;;;;;;7.33;5.07;;;8.80;90.40;;;;;;5054006;28;20430;-55
2021/04/26 02:19:02;;;;;;;9.57;5.23;;;8.50;90.90;;;;;;5054595;28;20401;-56
2021/04/26 02:21:28;;;;;;;6.63;5.00;;;8.40;91.60;;;;;;5054067;28;20541;-57
2021/04/26 02:23:54;;;;;;;6.00;4.77;;;8.40;92.10;;;;;;5036143;28;20162;-53
2021/04/26 02:26:20;;;;;;;6.70;5.10;;;8.40;92.20;;;;;;5054121;28;20316;-56
2021/04/26 02:28:45;;;;;;;5.20;4.50;;;8.40;92.70;;;;;;5054078;28;20472;-56
2021/04/26 02:31:16;;;;;;;5.50;4.93;;;8.30;93.00;;;;;;5053738;28;20175;-54
2021/04/26 02:33:51;;;;;;;5.57;4.87;;;8.20;93.40;;;;;;5053778;28;20562;-56
2021/04/26 02:36:23;;;;;;;7.80;5.13;;;8.00;93.60;;;;;;5053506;28;20436;-56
2021/04/26 02:38:55;;;;;;;6.43;4.80;;;8.10;94.10;;;;;;5053705;28;20419;-55
2021/04/26 02:41:29;;;;;;;7.70;5.57;;;8.20;94.00;;;;;;5035111;28;20473;-51
2021/04/26 02:44:02;;;;;;;7.03;5.80;;;8.10;94.30;;;;;;5067206;28;20909;-54
2021/04/26 02:46:31;;;;;;;5.50;4.83;;;8.10;94.80;;;;;;5073217;28;20412;-56
2021/04/26 02:48:58;;;;;;;7.17;5.27;;;8.00;94.90;;;;;;5059540;28;20440;-55
2021/04/26 02:51:27;;;;;;;7.63;5.80;;;7.90;95.50;;;;;;5053171;28;20538;-56
2021/04/26 02:53:54;;;;;;;6.17;5.30;;;7.80;95.70;;;;;;5053443;28;20951;-52
2021/04/26 02:56:20;;;;;;;5.20;4.70;;;7.80;95.80;;;;;;5053385;28;20518;-55
2021/04/26 02:58:50;;;;;;;9.80;6.30;;;7.70;96.30;;;;;;5053531;28;20405;-56
2021/04/26 03:01:16;;;;;;;5.73;5.10;;;7.70;96.50;;;;;;5050696;28;20987;-56
2021/04/26 03:03:43;;;;;;;10.13;5.77;;;7.50;97.00;;;;;;5073517;28;20430;-54
2021/04/26 03:06:10;;;;;;;10.30;5.90;;;7.60;97.50;;;;;;5071011;28;20447;-55
2021/04/26 03:08:36;;;;;;;7.37;5.93;;;7.60;97.50;;;;;;5053430;28;20400;-55
2021/04/26 03:11:07;;;;;;;7.30;5.70;;;7.60;97.60;;;;;;5053505;28;20405;-52
2021/04/26 03:13:34;;;;;;;7.63;5.20;;;7.60;97.80;;;;;;5055960;28;20396;-56
2021/04/26 03:16:00;;;;;;;7.47;6.23;;;7.60;97.80;;;;;;5053292;28;20463;-55
2021/04/26 03:18:27;;;;;;;7.60;5.73;;;7.60;98.00;;;;;;5053169;28;20401;-55
2021/04/26 03:20:55;;;;;;;7.03;5.47;;;7.60;98.00;;;;;;5053460;28;20190;-54
2021/04/26 03:23:26;;;;;;;7.23;6.53;;;7.60;98.20;;;;;;5056268;28;20798;-52
2021/04/26 03:25:55;;;;;;;8.87;5.77;;;7.50;98.20;;;;;;5057141;28;20389;-53
2021/04/26 03:28:22;;;;;;;6.03;5.13;;;7.30;98.80;;;;;;5057149;28;20444;-53
2021/04/26 03:30:48;;;;;;;7.23;5.90;;;7.20;99.40;;;;;;5056935;28;20909;-56
2021/04/26 03:33:15;;;;;;;9.17;6.30;;;7.20;99.60;;;;;;5057407;28;20408;-55
2021/04/26 03:35:42;;;;;;;8.43;6.40;;;7.20;99.50;;;;;;5056977;28;20440;-56
2021/04/26 03:38:10;;;;;;;6.70;5.90;;;7.20;99.30;;;;;;5074439;28;21028;-56
2021/04/26 03:40:37;;;;;;;7.60;6.33;;;7.10;99.80;;;;;;5077524;28;20404;-53
2021/04/26 03:43:02;;;;;;;6.10;5.50;;;7.20;99.90;;;;;;5077031;28;20487;-56
2021/04/26 03:45:28;;;;;;;11.30;5.87;;;7.30;99.70;;;;;;5077276;28;20479;-56
2021/04/26 03:47:55;;;;;;;6.73;5.97;;;7.30;99.40;;;;;;5076849;28;20182;-52
2021/04/26 03:50:22;;;;;;;9.50;6.70;;;7.30;99.30;;;;;;5076718;28;20396;-56
2021/04/26 03:52:48;;;;;;;6.90;5.70;;;7.40;99.40;;;;;;5076474;28;20397;-55
2021/04/26 03:55:17;;;;;;;8.03;5.70;;;7.40;99.10;;;;;;5076594;28;20492;-56
2021/04/26 03:57:43;;;;;;;7.50;5.07;;;7.30;99.00;;;;;;5076718;28;20818;-55
2021/04/26 04:00:11;;;;;;;8.10;6.00;;;7.20;99.20;;;;;;5076770;28;20411;-53
2021/04/26 04:02:36;;;;;;;8.07;5.70;;;7.20;99.30;;;;;;5076192;28;20212;-55
2021/04/26 04:05:06;;;;;;;7.37;6.60;;;7.20;99.50;;;;;;5076468;28;20400;-55
2021/04/26 04:07:32;;;;;;;7.23;4.90;;;7.20;99.60;;;;;;5062841;28;20670;-52
2021/04/26 04:09:58;;;;;;;7.03;6.07;;;7.20;99.30;;;;;;5056299;28;20397;-53
2021/04/26 04:12:23;;;;;;;8.30;6.63;;;7.20;99.20;;;;;;5056471;28;20994;-53
2021/04/26 04:14:49;;;;;;;6.67;5.10;;;7.30;99.10;;;;;;5056395;28;20196;-54
2021/04/26 04:17:15;;;;;;;8.67;6.43;;;7.30;98.90;;;;;;5056438;28;20213;-53
2021/04/26 04:19:41;;;;;;;6.83;6.20;;;7.10;99.30;;;;;;5056446;28;20508;-53
2021/04/26 04:22:07;;;;;;;9.33;6.60;;;7.00;99.60;;;;;;5056033;28;20271;-56
2021/04/26 04:24:33;;;;;;;6.70;5.60;;;7.00;99.60;;;;;;5056086;28;20500;-53
2021/04/26 04:26:59;;;;;;;9.67;6.30;;;6.90;99.60;;;;;;5056141;28;20187;-53
2021/04/26 04:29:24;;;;;;;8.37;6.00;;;7.00;99.60;;;;;;5056011;28;20177;-54
2021/04/26 04:31:50;;;;;;;10.17;6.40;;;6.90;99.30;;;;;;5055865;28;20327;-53
2021/04/26 04:34:16;;;;;;;7.27;6.13;;;6.80;99.30;;;;;;5055450;28;20576;-54
2021/04/26 04:36:41;;;;;;;8.70;6.10;;;6.80;99.90;;;;;;5061639;28;20463;-56
2021/04/26 04:39:07;;;;;;;9.40;6.10;;;6.70;99.90;;;;;;5076151;28;20173;-55
2021/04/26 04:41:33;;;;;;;11.33;6.90;;;6.50;99.90;;;;;;5075784;28;20194;-56
2021/04/26 04:44:01;;;;;;;9.23;6.70;;;6.50;99.90;;;;;;5075947;28;20166;-55
2021/04/26 04:46:28;;;;;;;6.90;6.20;;;6.60;99.80;;;;;;5075848;28;20273;-56
2021/04/26 04:48:54;;;;;;;5.83;5.33;;;6.60;99.80;;;;;;5075657;28;20401;-54
2021/04/26 04:51:21;;;;;;;8.13;6.17;;;6.70;99.60;;;;;;5075777;28;20401;-56
2021/04/26 04:53:46;;;;;;;8.60;6.63;;;6.80;99.60;;;;;;5075498;28;20576;-54
2021/04/26 04:56:13;;;;;;;7.43;6.20;;;6.90;99.50;;;;;;5075408;28;20478;-57
2021/04/26 04:58:38;;;;;;;7.10;6.30;;;7.00;99.10;;;;;;5075512;28;20646;-56
2021/04/26 05:01:04;;;;;;;9.60;6.30;;;7.10;98.90;;;;;;5075158;28;20492;-56
2021/04/26 05:03:30;;;;;;;7.43;6.73;;;7.10;98.90;;;;;;5075507;28;20189;-54
2021/04/26 05:05:56;;;;;;;6.80;5.27;;;7.20;98.80;;;;;;5074900;28;20177;-56
2021/04/26 05:08:21;;;;;;;12.50;6.07;;;7.20;98.60;;;;;;5055402;28;20454;-54
2021/04/26 05:10:49;;;;;;;7.60;5.60;;;7.30;98.60;;;;;;5055219;28;20247;-53
2021/04/26 05:13:16;;;;;;;5.87;5.27;;;7.40;98.30;;;;;;5055256;28;20209;-56
2021/04/26 05:15:42;;;;;;;7.57;6.80;;;7.40;98.40;;;;;;5055267;28;20403;-55
2021/04/26 05:18:08;;;;;;;7.10;6.13;;;7.40;98.30;;;;;;5055498;28;20462;-57
2021/04/26 05:20:35;;;;;;;7.43;5.40;;;7.40;98.30;;;;;;5054951;28;20551;-56
2021/04/26 05:23:01;;;;;;;9.37;6.47;;;7.50;98.70;;;;;;5057637;28;20181;-54
2021/04/26 05:25:27;;;;;;;10.40;6.37;;;7.50;98.50;;;;;;5055080;28;20440;-56
2021/04/26 05:27:53;;;;;;;9.03;6.93;;;7.40;98.20;;;;;;5055086;28;20424;-56
2021/04/26 05:30:19;;;;;;;8.87;6.87;;;7.50;98.40;;;;;;5055264;28;20170;-54
2021/04/26 05:32:45;;;;;;;9.30;7.27;;;7.60;98.60;;;;;;5054883;28;20273;-54
2021/04/26 05:35:11;;;;;;;6.70;5.90;;;7.70;98.20;;;;;;5060290;28;20425;-53
2021/04/26 05:37:37;;;;;;;7.00;6.00;;;7.80;98.10;;;;;;5055005;28;20464;-54
2021/04/26 05:40:03;;;;;;;7.40;6.20;;;7.80;98.40;;;;;;5036780;28;20487;-53
2021/04/26 05:42:28;;;;;;;7.73;6.87;;;7.80;98.50;;;;;;5074969;28;20222;-56
2021/04/26 05:44:54;;;;;;;8.10;6.40;;;7.90;98.00;;;;;;5074468;28;20855;-55
2021/04/26 05:47:20;;;;;;;9.83;6.30;;;8.00;97.80;;;;;;5074276;28;20193;-55
2021/04/26 05:49:45;;;;;;;6.70;6.00;;;8.10;97.40;;;;;;5074385;28;20579;-55
2021/04/26 05:52:11;;;;;;;7.27;6.37;;;8.10;97.40;;;;;;5060915;28;20201;-56
2021/04/26 05:54:37;;;;;;;8.57;6.70;;;8.10;97.10;;;;;;5055458;28;20190;-55
2021/04/26 05:57:03;;;;;;;6.00;5.40;;;8.10;96.10;;;;;;5060304;28;20193;-53
2021/04/26 05:59:28;;;;;;;8.23;6.27;;;8.10;95.10;;;;;;5074214;28;20223;-55
2021/04/26 06:01:54;;;;;;;10.90;6.53;;;8.40;95.40;;;;;;5074110;28;20809;-54
2021/04/26 06:04:20;;;;;;;8.37;6.80;;;8.50;95.00;;;;;;5074250;28;20191;-53
2021/04/26 06:06:45;;;;;;;6.90;6.13;;;8.60;94.60;;;;;;5066716;28;20206;-53
2021/04/26 06:09:11;;;;;;;8.17;5.80;;;8.70;94.70;;;;;;5042002;28;20174;-55
2021/04/26 06:11:37;;;;;;;10.43;5.80;;;8.70;93.10;;;;;;5073186;28;20170;-52
2021/04/26 06:14:02;;;;;;;9.30;6.43;;;9.00;92.70;;;;;;5074598;28;20684;-56
2021/04/26 06:16:28;;;;;;;5.50;5.00;;;9.10;92.50;;;;;;5073717;28;20279;-55
2021/04/26 06:18:53;;;;;;;14.07;6.50;;;8.90;92.30;;;;;;5073714;28;20180;-53
2021/04/26 06:21:19;;;;;;;10.80;5.97;;;9.10;92.40;;;;;;5073949;28;20197;-54
2021/04/26 06:23:45;;;;;;;6.90;6.20;;;9.00;91.90;;;;;;5073504;28;20166;-55
2021/04/26 06:26:10;;;;;;;7.50;5.67;;;8.80;91.80;;;;;;5073972;28;20197;-52
2021/04/26 06:28:36;;;;;;;6.70;5.90;;;8.60;92.00;;;;;;5074241;28;20223;-56
2021/04/26 06:31:02;;;;;;;10.07;5.80;;;8.70;92.10;;;;;;5074042;28;20265;-53
2021/04/26 06:33:28;;;;;;;10.10;9.10;;;8.90;92.10;;;;;;5073857;28;20177;-57
2021/04/26 06:35:54;;;;;;;9.47;5.90;;;8.80;92.00;;;;;;5074113;28;20503;-55
2021/04/26 06:38:21;;;;;;;8.03;6.60;;;8.70;92.10;;;;;;5053816;28;20181;-53
2021/04/26 06:40:52;;;;;;;8.43;6.53;;;8.50;91.90;;;;;;5054348;28;20430;-53
2021/04/26 06:43:18;;;;;;;6.70;6.10;;;8.50;92.30;;;;;;5054773;28;20382;-55
2021/04/26 06:45:44;;;;;;;6.20;5.70;;;8.70;92.20;;;;;;5060250;28;20777;-52
2021/04/26 06:48:13;;;;;;;7.23;6.57;;;9.10;92.40;;;;;;5074346;28;20186;-52
2021/04/26 06:50:38;;;;;;;8.83;5.90;;;8.90;91.70;;;;;;5074497;28;20441;-55
2021/04/26 06:53:04;;;;;;;9.00;6.77;;;8.90;91.90;;;;;;5074064;28;20404;-56
2021/04/26 06:55:30;;;;;;;9.93;6.70;;;9.00;92.10;;;;;;5074229;28;20166;-55
2021/04/26 06:57:56;;;;;;;8.87;6.40;;;9.10;91.80;;;;;;5074342;28;20267;-53
2021/04/26 07:00:22;;;;;;;8.07;6.00;;;9.20;91.50;;;;;;5074631;28;20407;-53
2021/04/26 07:02:49;;;;;;;11.60;7.27;;;9.00;91.80;;;;;;5075096;28;20200;-53
2021/04/26 07:05:15;;;;;;;9.37;6.30;;;9.00;92.00;;;;;;5075162;28;20780;-55
2021/04/26 07:07:40;;;;;;;8.20;7.07;;;9.00;91.60;;;;;;5059426;28;20439;-56
2021/04/26 07:10:06;;;;;;;10.17;7.03;;;8.90;92.00;;;;;;5054459;28;20939;-54
2021/04/26 07:12:32;;;;;;;11.70;6.40;;;9.10;91.70;;;;;;5054206;28;20616;-56
2021/04/26 07:14:59;;;;;;;6.93;6.17;;;9.20;91.40;;;;;;5053874;28;20782;-54
2021/04/26 07:17:25;;;;;;;7.40;6.47;;;9.30;91.60;;;;;;5054255;28;20432;-59
2021/04/26 07:19:51;;;;;;;8.60;6.47;;;9.30;90.90;;;;;;5055447;28;20414;-52
2021/04/26 07:22:17;;;;;;;7.77;6.43;;;9.30;90.70;;;;;;5053957;28;20293;-52
2021/04/26 07:24:43;;;;;;;7.57;6.30;;;9.50;90.70;;;;;;5054469;28;20477;-52
2021/04/26 07:27:09;;;;;;;7.00;5.60;;;9.70;90.40;;;;;;5056448;28;20432;-52
2021/04/26 07:29:35;;;;;;;7.10;5.90;;;9.60;90.10;;;;;;5054762;28;20928;-52
2021/04/26 07:32:01;;;;;;;9.13;6.13;;;9.90;90.00;;;;;;5046912;28;20184;-53
2021/04/26 07:34:26;;;;;;;7.37;5.90;;;10.00;89.00;;;;;;5057246;28;20413;-51
2021/04/26 07:36:52;;;;;;;6.97;5.80;;;10.10;88.10;;;;;;5065769;23;20221;-56
2021/04/26 07:39:19;;;;;;;7.47;6.13;;;9.80;89.70;;;;;;5033035;28;20549;-55
2021/04/26 07:41:46;;;;;;;13.70;7.57;;;9.80;90.10;;;;;;5026563;28;20213;-57
2021/04/26 07:44:12;;;;;;;6.73;6.13;;;9.70;89.90;;;;;;5031065;28;20418;-56
2021/04/26 07:46:37;;;;;;;7.83;7.03;;;9.80;90.00;;;;;;5020347;28;20429;-59
2021/04/26 07:49:03;;;;;;;7.70;6.93;;;9.80;90.10;;;;;;5031725;28;20420;-57
2021/04/26 07:51:29;;;;;;;6.80;6.20;;;9.90;90.40;;;;;;5031193;28;20187;-57
2021/04/26 07:53:54;;;;;;;7.00;6.20;;;10.10;88.00;;;;;;5032326;28;20289;-55
2021/04/26 07:56:20;;;;;;;7.30;6.47;;;10.40;88.00;;;;;;5024893;28;20192;-57
2021/04/26 07:58:46;;;;;;;7.87;6.20;;;10.20;87.90;;;;;;5012901;28;20270;-57
2021/04/26 08:01:11;;;;;;;7.93;7.13;;;10.10;88.20;;;;;;5012651;28;20727;-57
2021/04/26 08:03:37;;;;;;;6.87;6.17;;;10.20;88.00;;;;;;5012726;28;20175;-58
2021/04/26 08:06:04;;;;;;;8.83;5.87;;;10.30;87.90;;;;;;5012734;28;20671;-57
2021/04/26 08:08:30;;;;;;;9.07;7.37;;;10.30;87.00;;;;;;5028692;28;20230;-55
2021/04/26 08:10:56;;;;;;;8.83;6.13;;;10.20;87.00;;;;;;5033917;28;20413;-55
2021/04/26 08:13:22;;;;;;;7.27;6.40;;;10.30;87.00;;;;;;5035902;28;20404;-57
2021/04/26 08:15:48;;;;;;;9.97;6.83;;;10.40;87.50;;;;;;5036001;28;20181;-56
2021/04/26 08:18:14;;;;;;;7.80;5.80;;;10.50;87.10;;;;;;5035666;28;20432;-55
2021/04/26 08:20:39;;;;;;;9.03;7.67;;;10.70;86.70;;;;;;5035919;28;20322;-55
2021/04/26 08:23:05;;;;;;;7.60;5.90;;;10.90;85.90;;;;;;5035645;28;20182;-54
2021/04/26 08:25:31;;;;;;;13.93;6.60;;;11.10;85.60;;;;;;5035407;28;20671;-56
2021/04/26 08:27:57;;;;;;;6.10;5.50;;;11.10;84.30;;;;;;5035800;28;20661;-56
2021/04/26 08:30:24;;;;;;;9.40;6.90;;;11.10;85.30;;;;;;5035510;28;20410;-56
2021/04/26 08:32:50;;;;;;;9.03;6.70;;;11.30;84.80;;;;;;5035480;28;20429;-57
2021/04/26 08:35:15;;;;;;;8.70;6.47;;;11.60;84.20;;;;;;5035006;28;20416;-55
2021/04/26 08:37:41;;;;;;;7.40;6.00;;;11.30;83.50;;;;;;5033927;28;20215;-56
2021/04/26 08:40:08;;;;;;;10.60;6.57;;;11.40;83.80;;;;;;5035838;28;20168;-56
2021/04/26 08:42:34;;;;;;;8.20;6.73;;;11.60;83.40;;;;;;5031216;28;20695;-57
2021/04/26 08:44:59;;;;;;;9.00;6.83;;;11.60;82.70;;;;;;5025586;28;20426;-54
2021/04/26 08:47:26;;;;;;;9.43;7.13;;;11.50;82.80;;;;;;5016386;28;20630;-53
2021/04/26 08:49:58;;;;;;;9.17;6.33;;;11.40;82.60;;;;;;5020861;28;20163;-57
2021/04/26 08:52:25;;;;;;;7.90;6.33;;;11.50;83.40;;;;;;5034085;28;20417;-59
2021/04/26 08:54:54;;;;;;;6.50;5.80;;;11.60;82.80;;;;;;5034595;28;20487;-57
2021/04/26 08:57:20;;;;;;;7.73;6.93;;;11.70;82.80;;;;;;5034877;28;20442;-56
2021/04/26 08:59:46;;;;;;;11.70;7.87;;;11.80;81.90;;;;;;5035164;28;20461;-51
2021/04/26 09:02:13;;;;;;;7.47;6.30;;;11.80;81.70;;;;;;5026995;28;20479;-52
2021/04/26 09:04:47;;;;;;;10.43;7.10;;;11.90;81.50;;;;;;5026630;28;20229;-52
2021/04/26 09:07:14;;;;;;;7.10;6.37;;;11.90;81.60;;;;;;5033994;28;20433;-53
2021/04/26 09:09:50;;;;;;;6.80;6.10;;;12.00;81.20;;;;;;5034964;28;20959;-53
2021/04/26 09:12:22;;;;;;;10.37;7.13;;;12.30;80.60;;;;;;5033145;28;20409;-52
2021/04/26 09:14:53;;;;;;;7.53;6.73;;;12.50;81.10;;;;;;5036066;28;20418;-52
2021/04/26 09:17:36;;;;;;;7.13;6.40;;;12.70;80.50;;;;;;5035538;28;20954;-52
2021/04/26 09:20:04;;;;;;;11.03;6.80;;;12.70;79.00;;;;;;5034536;28;20391;-55
2021/04/26 09:23:00;;;;;;;9.00;6.43;;;12.70;78.70;;;;;;5031335;28;20910;-52
2021/04/26 09:25:34;;;;;;;6.57;5.97;;;12.70;78.20;;;;;;5033921;28;20796;-57
2021/04/26 09:28:02;;;;;;;6.80;6.10;;;12.70;78.60;;;;;;5035103;28;20475;-57
2021/04/26 09:30:42;;;;;;;6.73;6.00;;;12.60;77.30;;;;;;5035263;28;20405;-56
2021/04/26 09:33:15;;;;;;;7.13;6.40;;;12.60;78.10;;;;;;5035237;28;20800;-57
2021/04/26 09:35:42;;;;;;;7.00;6.23;;;12.90;79.40;;;;;;5035047;28;20409;-55
2021/04/26 09:38:24;;;;;;;7.90;6.53;;;13.10;77.70;;;;;;5033995;28;20453;-53
2021/04/26 09:41:21;;;;;;;7.10;6.40;;;13.50;77.40;;;;;;5034944;28;20492;-56
2021/04/26 09:44:01;;;;;;;7.83;5.90;;;13.50;76.70;;;;;;5034687;28;20385;-56
2021/04/26 09:46:46;;;;;;;7.57;6.73;;;13.40;77.60;;;;;;5034432;28;20394;-57
2021/04/26 09:49:18;;;;;;;9.07;7.03;;;13.50;77.40;;;;;;5034997;28;20486;-57
2021/04/26 09:51:47;;;;;;;11.53;6.87;;;13.60;76.40;;;;;;5034532;28;20403;-56
2021/04/26 09:54:13;;;;;;;7.70;6.37;;;13.90;77.00;;;;;;5034196;28;20441;-57
2021/04/26 09:56:44;;;;;;;8.83;6.97;;;14.10;75.00;;;;;;5034628;28;20920;-56
2021/04/26 09:59:12;;;;;;;7.70;6.87;;;14.20;74.80;;;;;;5034711;28;20188;-56
2021/04/26 10:01:39;;;;;;;10.83;6.80;;;14.30;74.20;;;;;;5034219;28;20832;-53
2021/04/26 10:04:06;;;;;;;7.37;6.03;;;14.20;75.00;;;;;;5034072;28;20407;-54
2021/04/26 10:06:32;;;;;;;8.40;6.80;;;14.10;75.60;;;;;;5033954;28;20447;-52
2021/04/26 10:09:00;;;;;;;8.40;7.47;;;14.30;75.80;;;;;;5014148;28;20444;-54
2021/04/26 10:11:28;;;;;;;6.77;6.07;;;14.60;74.50;;;;;;5014771;28;20408;-55
2021/04/26 10:14:06;;;;;;;6.40;5.73;;;14.90;73.90;;;;;;5014223;28;20496;-56
2021/04/26 10:16:55;;;;;;;9.17;6.73;;;15.00;72.40;;;;;;5014269;28;20444;-56
2021/04/26 10:19:31;;;;;;;8.27;6.90;;;15.10;74.60;;;;;;5013892;28;20397;-56
2021/04/26 10:21:59;;;;;;;7.37;6.20;;;15.20;70.70;;;;;;5014130;28;20495;-58
2021/04/26 10:24:28;;;;;;;8.30;6.40;;;15.20;69.70;;;;;;5014050;28;20421;-53
2021/04/26 10:27:05;;;;;;;7.83;7.03;;;15.00;67.70;;;;;;5013887;28;20513;-57
2021/04/26 10:29:36;;;;;;;7.10;6.07;;;15.10;68.10;;;;;;5014079;28;20395;-57
2021/04/26 10:32:03;;;;;;;7.03;6.30;;;15.00;67.70;;;;;;5013332;28;20402;-58
2021/04/26 10:34:38;;;;;;;7.10;6.30;;;15.00;68.40;;;;;;5013667;28;20798;-56
2021/04/26 10:37:24;;;;;;;9.70;6.97;;;15.10;68.90;;;;;;5017816;28;20482;-58
2021/04/26 10:39:58;;;;;;;10.27;7.00;;;15.10;68.80;;;;;;5033389;28;20500;-58
2021/04/26 10:42:30;;;;;;;10.23;6.83;;;15.30;69.30;;;;;;5033129;28;20459;-58
2021/04/26 10:44:56;;;;;;;9.00;5.80;;;15.30;69.40;;;;;;5033452;28;20444;-58
2021/04/26 10:47:31;;;;;;;7.60;6.83;;;15.50;70.60;;;;;;5020888;28;20520;-58
2021/04/26 10:50:00;;;;;;;7.53;6.83;;;15.90;68.20;;;;;;5031073;28;20193;-60
2021/04/26 10:52:29;;;;;;;11.77;7.30;;;16.60;66.80;;;;;;5031891;28;20905;-53
2021/04/26 10:54:56;;;;;;;6.90;6.20;;;17.80;64.40;;;;;;5033106;28;20405;-55
2021/04/26 10:57:34;;;;;;;7.30;6.40;;;19.70;62.40;;;;;;5033091;28;20938;-57
2021/04/26 11:02:54;;;;;;;8.13;7.33;;;21.00;55.20;;;;;;5013162;28;20457;-58
2021/04/26 11:05:25;;;;;;;9.90;6.77;;;21.90;52.40;;;;;;5025960;28;20422;-58
2021/04/26 11:07:55;;;;;;;13.03;7.50;;;21.40;51.40;;;;;;5031414;28;20970;-58
2021/04/26 11:10:39;;;;;;;7.63;6.73;;;21.10;51.20;;;;;;5032474;28;20408;-57
2021/04/26 11:13:35;;;;;;;9.43;6.27;;;21.70;50.50;;;;;;5032420;28;20493;-58
2021/04/26 11:16:22;;;;;;;10.30;6.20;;;22.00;51.40;;;;;;5033102;28;20413;-57
2021/04/26 11:18:57;;;;;;;9.10;5.73;;;21.00;50.00;;;;;;5017903;28;20491;-58
2021/04/26 11:21:44;;;;;;;7.67;6.60;;;21.20;49.20;;;;;;5025098;28;20481;-57
2021/04/26 11:24:19;;;;;;;7.63;5.40;;;22.30;48.70;;;;;;5031402;28;20814;-55
2021/04/26 11:27:08;;;;;;;6.80;5.70;;;24.10;46.00;;;;;;5032705;28;20442;-53
2021/04/26 11:29:48;;;;;;;5.70;5.03;;;23.60;45.20;;;;;;5033127;28;20426;-56
2021/04/26 11:32:17;;;;;;;8.90;6.30;;;24.00;44.40;;;;;;5033433;28;20410;-56
2021/04/26 11:34:50;;;;;;;6.20;5.60;;;23.70;45.10;;;;;;5032618;28;20917;-56
2021/04/26 11:37:24;;;;;;;6.60;5.53;;;24.40;43.80;;;;;;5031867;28;20838;-58
2021/04/26 11:39:54;;;;;;;5.90;5.30;;;24.70;43.60;;;;;;5033114;28;20900;-59
2021/04/26 11:42:31;;;;;;;8.80;5.40;;;24.30;43.00;;;;;;5033069;28;20454;-57
2021/04/26 11:44:58;;;;;;;10.57;5.67;;;24.00;44.90;;;;;;5037086;28;20394;-58
2021/04/26 11:47:25;;;;;;;6.03;5.43;;;25.20;41.80;;;;;;5036754;28;20448;-58
2021/04/26 11:49:51;;;;;;;7.80;5.80;;;27.00;40.20;;;;;;5036718;28;20402;-58
2021/04/26 11:52:18;;;;;;;6.07;5.47;;;24.80;40.30;;;;;;5037078;28;20410;-59
2021/04/26 11:54:59;;;;;;;7.17;6.00;;;23.30;41.80;;;;;;5036924;28;20414;-56
2021/04/26 11:57:25;;;;;;;6.13;5.53;;;23.90;44.30;;;;;;5036527;28;20422;-55
2021/04/26 11:59:56;;;;;;;6.27;5.43;;;24.10;41.30;;;;;;5036592;28;20418;-56
2021/04/26 12:02:37;;;;;;;5.90;4.90;;;24.50;40.30;;;;;;5036519;28;20218;-58
2021/04/26 12:05:12;;;;;;;5.80;5.20;;;25.20;40.20;;;;;;5036551;28;20429;-53
2021/04/26 12:07:38;;;;;;;8.00;5.17;;;25.10;39.60;;;;;;5036192;28;20436;-57
2021/04/26 12:10:13;;;;;;;7.37;5.47;;;25.70;39.30;;;;;;5036636;28;20460;-55
2021/04/26 12:12:40;;;;;;;5.80;5.10;;;24.50;38.30;;;;;;5036812;28;20417;-58
2021/04/26 12:15:10;;;;;;;7.33;5.20;;;24.80;39.90;;;;;;5036479;28;20500;-58
2021/04/26 12:17:44;;;;;;;5.77;5.37;;;25.90;38.20;;;;;;5022806;28;20812;-58
2021/04/26 12:20:34;;;;;;;6.50;5.60;;;25.70;37.80;;;;;;5035725;28;20785;-57
2021/04/26 12:23:02;;;;;;;5.43;4.93;;;25.30;37.10;;;;;;5027755;28;20461;-58
2021/04/26 12:25:34;;;;;;;6.60;5.00;;;23.10;40.10;;;;;;5028038;28;20422;-55
2021/04/26 12:28:05;;;;;;;6.03;4.97;;;23.70;40.40;;;;;;5034823;28;20449;-58
2021/04/26 12:30:44;;;;;;;5.80;4.23;;;25.20;38.90;;;;;;5035280;28;20437;-58
2021/04/26 12:33:24;;;;;;;5.77;5.03;;;25.10;38.30;;;;;;5034849;28;20445;-56
2021/04/26 12:35:51;;;;;;;6.13;4.93;;;25.30;37.30;;;;;;5028657;28;20410;-58
2021/04/26 12:38:23;;;;;;;5.60;5.03;;;25.40;38.40;;;;;;5028469;28;20540;-58
2021/04/26 12:40:50;;;;;;;5.50;4.67;;;24.70;37.50;;;;;;5033882;28;20469;-58
2021/04/26 12:43:16;;;;;;;6.50;4.80;;;24.50;38.10;;;;;;5034651;28;20425;-57
2021/04/26 12:45:45;;;;;;;8.07;5.37;;;25.60;38.80;;;;;;5035920;28;20922;-57
2021/04/26 12:48:17;;;;;;;8.53;4.70;;;25.40;39.10;;;;;;5035443;28;20426;-59
2021/04/26 12:50:49;;;;;;;6.20;4.83;;;26.70;37.40;;;;;;5035363;28;20504;-58
2021/04/26 12:53:29;;;;;;;5.93;4.20;;;27.30;34.70;;;;;;5035256;28;20913;-56
2021/04/26 12:56:11;;;;;;;5.73;4.17;;;25.60;34.90;;;;;;5034960;28;20386;-56
2021/04/26 12:58:49;;;;;;;5.57;4.27;;;25.50;35.90;;;;;;5020664;28;20438;-57
2021/04/26 13:01:17;;;;;;;6.37;5.23;;;26.30;33.80;;;;;;5034486;28;20457;-57